Great Smoky Mtns National Park, NC

11:07 PM EST on November 27, 2014 (GMT -0500)
Asheville Middle School | Change Station
CLOSE
Current Station
Personal Weather Station
Location: Asheville, NC
Elevation: 2139 ft
Nearby Weather Stations

Elev 2139 ft 35.59 °N, 82.56 °W | Updated 6 minutes ago

Overcast
Overcast
26.2 °F
Feels Like 21 °F
N
4.7
Wind Variable Wind from WNW

Today
High -- | Low -- °F
--% Chance of Precip.
Yesterday
High -- | Low -- °F
Precip. -- in
7:17 AM 5:17 PM
Waxing Crescent, 36% visible
Pressure 30.29 in
Visibility 10.0 miles
Clouds Mostly Cloudy 3200 ft
Overcast 4000 ft
Windchill 21 °F
Dew Point 20 °F
Humidity 76%
Rainfall 0.00 in
Snow Depth Not available.
UV 0 out of 12
Pollen .10 out of 12
Air Quality Not available.
Flu Activity Not available.
METAR KAVL 280354Z AUTO 36010G18KT 10SM BKN032 OVC040 M01/M06 A3026 RMK AO2 SNE05 SLP257 P0000 T10111061

More Conditions Fewer Conditions

Pressure 30.29 in
Visibility 10.0 miles
Clouds Mostly Cloudy 3200 ft
Overcast 4000 ft
Windchill 21 °F
Dew Point 20 °F
Humidity 76%
Rainfall 0.00 in
Snow Depth Not available.
UV 0 out of 12
Pollen .10 out of 12
Air Quality Not available.
Flu Activity Not available.
METAR KAVL 280354Z AUTO 36010G18KT 10SM BKN032 OVC040 M01/M06 A3026 RMK AO2 SNE05 SLP257 P0000 T10111061

More Conditions Fewer Conditions

10-Day Weather Forecast

Almanac

Astronomy

Nov. 27, 2014 Rise Set
Actual Time
Civil Twilight
Nautical Twilight
Astronomical Twilight
Moon
Length of Visible Light
Length of Day
Tomorrow will be .
, % of the Moon is Illuminated

Today's Extremes

State Highs State Lows

Community

WunderPhotos

Upload Photos

1,774,176 photos uploaded!

WunderBlogs® & News

Nearby

Air Quality

  Air Quality AQ Index Pollutant
Not available.

Snow Depth

Station Depth Elevation

Earthquake Activity

City Distance Mag. Time & Date
Minimum magnitude displayed is 2.5.

Coastal Water Temperatures

Place Temperature

Nearby Weather Stations